sensor_id;sensor_type;location;lat;lon;timestamp;P1;durP1;ratioP1;P2;durP2;ratioP2
11486;SDS011;10510;47.942;9.442;2022-12-15T00:01:16;17.15;;;6.85;;
11486;SDS011;10510;47.942;9.442;2022-12-15T00:03:35;18.40;;;6.50;;
11486;SDS011;10510;47.942;9.442;2022-12-15T00:05:53;13.18;;;6.38;;
11486;SDS011;10510;47.942;9.442;2022-12-15T00:08:12;17.10;;;7.72;;
11486;SDS011;10510;47.942;9.442;2022-12-15T00:10:31;12.25;;;6.80;;
11486;SDS011;10510;47.942;9.442;2022-12-15T00:12:50;12.32;;;6.93;;
11486;SDS011;10510;47.942;9.442;2022-12-15T00:15:08;16.10;;;7.18;;
11486;SDS011;10510;47.942;9.442;2022-12-15T00:17:27;9.25;;;5.00;;
11486;SDS011;10510;47.942;9.442;2022-12-15T00:19:46;6.53;;;3.88;;
11486;SDS011;10510;47.942;9.442;2022-12-15T00:22:05;6.05;;;3.42;;
11486;SDS011;10510;47.942;9.442;2022-12-15T00:24:24;7.15;;;3.35;;
11486;SDS011;10510;47.942;9.442;2022-12-15T00:26:43;6.85;;;3.50;;
11486;SDS011;10510;47.942;9.442;2022-12-15T00:29:02;8.40;;;3.83;;
11486;SDS011;10510;47.942;9.442;2022-12-15T00:31:20;6.10;;;3.53;;
11486;SDS011;10510;47.942;9.442;2022-12-15T00:33:39;8.13;;;3.85;;
11486;SDS011;10510;47.942;9.442;2022-12-15T00:35:58;7.03;;;4.10;;
11486;SDS011;10510;47.942;9.442;2022-12-15T00:38:17;11.45;;;5.00;;
11486;SDS011;10510;47.942;9.442;2022-12-15T00:40:35;9.60;;;4.32;;
11486;SDS011;10510;47.942;9.442;2022-12-15T00:42:36;8.25;;;4.20;;
11486;SDS011;10510;47.942;9.442;2022-12-15T00:44:36;10.05;;;5.00;;
11486;SDS011;10510;47.942;9.442;2022-12-15T00:46:36;12.32;;;5.32;;
11486;SDS011;10510;47.942;9.442;2022-12-15T00:48:55;7.63;;;4.40;;
11486;SDS011;10510;47.942;9.442;2022-12-15T00:50:56;11.10;;;5.57;;
11486;SDS011;10510;47.942;9.442;2022-12-15T00:52:56;10.85;;;5.10;;
11486;SDS011;10510;47.942;9.442;2022-12-15T00:55:15;7.53;;;4.60;;
11486;SDS011;10510;47.942;9.442;2022-12-15T00:57:34;11.45;;;4.90;;
11486;SDS011;10510;47.942;9.442;2022-12-15T00:59:53;9.10;;;4.80;;
11486;SDS011;10510;47.942;9.442;2022-12-15T01:02:12;9.65;;;5.28;;
11486;SDS011;10510;47.942;9.442;2022-12-15T01:04:31;9.52;;;4.72;;
11486;SDS011;10510;47.942;9.442;2022-12-15T01:06:50;9.82;;;5.38;;
11486;SDS011;10510;47.942;9.442;2022-12-15T01:09:09;9.70;;;5.10;;
11486;SDS011;10510;47.942;9.442;2022-12-15T01:11:30;9.13;;;5.10;;
11486;SDS011;10510;47.942;9.442;2022-12-15T01:13:49;7.97;;;4.93;;
11486;SDS011;10510;47.942;9.442;2022-12-15T01:16:08;10.55;;;5.03;;
11486;SDS011;10510;47.942;9.442;2022-12-15T01:18:28;10.65;;;4.65;;
11486;SDS011;10510;47.942;9.442;2022-12-15T01:20:54;10.68;;;4.93;;
11486;SDS011;10510;47.942;9.442;2022-12-15T01:22:58;10.60;;;5.70;;
11486;SDS011;10510;47.942;9.442;2022-12-15T01:24:59;8.00;;;4.80;;
11486;SDS011;10510;47.942;9.442;2022-12-15T01:26:59;10.05;;;5.45;;
11486;SDS011;10510;47.942;9.442;2022-12-15T01:28:59;8.98;;;5.07;;
11486;SDS011;10510;47.942;9.442;2022-12-15T01:31:00;11.00;;;6.13;;
11486;SDS011;10510;47.942;9.442;2022-12-15T01:33:00;8.90;;;5.45;;
11486;SDS011;10510;47.942;9.442;2022-12-15T01:35:01;10.13;;;6.00;;
11486;SDS011;10510;47.942;9.442;2022-12-15T01:37:01;11.45;;;6.40;;
11486;SDS011;10510;47.942;9.442;2022-12-15T01:39:02;12.85;;;6.53;;
11486;SDS011;10510;47.942;9.442;2022-12-15T01:41:06;11.23;;;6.57;;
11486;SDS011;10510;47.942;9.442;2022-12-15T01:43:17;12.35;;;6.75;;
11486;SDS011;10510;47.942;9.442;2022-12-15T01:47:23;10.23;;;6.07;;
11486;SDS011;10510;47.942;9.442;2022-12-15T01:49:26;12.57;;;5.93;;
11486;SDS011;10510;47.942;9.442;2022-12-15T01:51:31;10.57;;;5.88;;
11486;SDS011;10510;47.942;9.442;2022-12-15T01:53:36;10.65;;;6.30;;
11486;SDS011;10510;47.942;9.442;2022-12-15T01:55:54;12.80;;;5.88;;
11486;SDS011;10510;47.942;9.442;2022-12-15T01:57:57;12.02;;;6.57;;
11486;SDS011;10510;47.942;9.442;2022-12-15T02:00:03;10.73;;;6.03;;
11486;SDS011;10510;47.942;9.442;2022-12-15T02:02:06;11.38;;;6.50;;
11486;SDS011;10510;47.942;9.442;2022-12-15T02:04:07;12.48;;;6.78;;
11486;SDS011;10510;47.942;9.442;2022-12-15T02:06:07;14.90;;;7.53;;
11486;SDS011;10510;47.942;9.442;2022-12-15T02:08:08;12.57;;;7.05;;
11486;SDS011;10510;47.942;9.442;2022-12-15T02:10:09;11.15;;;7.25;;
11486;SDS011;10510;47.942;9.442;2022-12-15T02:12:17;15.07;;;8.07;;
11486;SDS011;10510;47.942;9.442;2022-12-15T02:30:49;12.20;;;6.95;;
11486;SDS011;10510;47.942;9.442;2022-12-15T02:33:14;12.15;;;6.80;;
11486;SDS011;10510;47.942;9.442;2022-12-15T02:35:23;16.23;;;8.95;;
11486;SDS011;10510;47.942;9.442;2022-12-15T02:37:32;12.93;;;7.75;;
11486;SDS011;10510;47.942;9.442;2022-12-15T02:39:35;13.77;;;7.35;;
11486;SDS011;10510;47.942;9.442;2022-12-15T02:41:37;15.52;;;7.75;;
11486;SDS011;10510;47.942;9.442;2022-12-15T02:43:41;16.13;;;7.43;;
11486;SDS011;10510;47.942;9.442;2022-12-15T02:45:46;16.17;;;9.20;;
11486;SDS011;10510;47.942;9.442;2022-12-15T02:48:22;13.23;;;7.22;;
11486;SDS011;10510;47.942;9.442;2022-12-15T02:50:34;13.98;;;6.95;;
11486;SDS011;10510;47.942;9.442;2022-12-15T02:52:41;12.65;;;7.22;;
11486;SDS011;10510;47.942;9.442;2022-12-15T02:54:55;12.63;;;7.20;;
11486;SDS011;10510;47.942;9.442;2022-12-15T03:01:55;17.33;;;8.35;;
11486;SDS011;10510;47.942;9.442;2022-12-15T03:04:00;16.70;;;7.90;;
11486;SDS011;10510;47.942;9.442;2022-12-15T03:06:04;16.20;;;8.13;;
11486;SDS011;10510;47.942;9.442;2022-12-15T03:08:04;16.88;;;8.25;;
11486;SDS011;10510;47.942;9.442;2022-12-15T03:10:05;14.77;;;7.85;;
11486;SDS011;10510;47.942;9.442;2022-12-15T03:12:06;15.13;;;8.50;;
11486;SDS011;10510;47.942;9.442;2022-12-15T03:14:07;15.50;;;7.90;;
11486;SDS011;10510;47.942;9.442;2022-12-15T03:16:07;15.77;;;8.20;;
11486;SDS011;10510;47.942;9.442;2022-12-15T03:18:07;17.92;;;9.05;;
11486;SDS011;10510;47.942;9.442;2022-12-15T03:20:08;16.63;;;9.15;;
11486;SDS011;10510;47.942;9.442;2022-12-15T03:22:09;19.60;;;9.38;;
11486;SDS011;10510;47.942;9.442;2022-12-15T03:24:09;18.00;;;9.75;;
11486;SDS011;10510;47.942;9.442;2022-12-15T03:26:09;16.52;;;9.00;;
11486;SDS011;10510;47.942;9.442;2022-12-15T03:28:10;17.98;;;8.85;;
11486;SDS011;10510;47.942;9.442;2022-12-15T03:30:11;16.80;;;9.15;;
11486;SDS011;10510;47.942;9.442;2022-12-15T03:32:12;16.83;;;8.38;;
11486;SDS011;10510;47.942;9.442;2022-12-15T03:34:12;18.15;;;8.80;;
11486;SDS011;10510;47.942;9.442;2022-12-15T03:36:13;24.55;;;9.50;;
11486;SDS011;10510;47.942;9.442;2022-12-15T03:38:13;18.70;;;9.23;;
11486;SDS011;10510;47.942;9.442;2022-12-15T03:40:13;19.55;;;9.13;;
11486;SDS011;10510;47.942;9.442;2022-12-15T03:42:14;18.92;;;9.57;;
11486;SDS011;10510;47.942;9.442;2022-12-15T03:44:34;20.10;;;9.82;;
11486;SDS011;10510;47.942;9.442;2022-12-15T03:46:34;18.67;;;9.52;;
11486;SDS011;10510;47.942;9.442;2022-12-15T03:48:34;19.52;;;9.40;;
11486;SDS011;10510;47.942;9.442;2022-12-15T03:50:35;15.93;;;9.05;;
11486;SDS011;10510;47.942;9.442;2022-12-15T03:52:36;17.63;;;9.48;;
11486;SDS011;10510;47.942;9.442;2022-12-15T03:54:36;19.27;;;10.00;;
11486;SDS011;10510;47.942;9.442;2022-12-15T03:56:36;19.02;;;9.20;;
11486;SDS011;10510;47.942;9.442;2022-12-15T03:58:37;16.98;;;8.98;;
11486;SDS011;10510;47.942;9.442;2022-12-15T04:00:37;19.13;;;9.02;;
11486;SDS011;10510;47.942;9.442;2022-12-15T04:02:38;16.65;;;8.75;;
11486;SDS011;10510;47.942;9.442;2022-12-15T04:04:38;21.10;;;8.93;;
11486;SDS011;10510;47.942;9.442;2022-12-15T04:06:38;18.60;;;9.20;;
11486;SDS011;10510;47.942;9.442;2022-12-15T04:08:38;18.92;;;9.55;;
11486;SDS011;10510;47.942;9.442;2022-12-15T04:10:39;18.30;;;9.85;;
11486;SDS011;10510;47.942;9.442;2022-12-15T04:12:39;17.45;;;9.50;;
11486;SDS011;10510;47.942;9.442;2022-12-15T04:14:39;16.27;;;9.40;;
11486;SDS011;10510;47.942;9.442;2022-12-15T04:16:41;21.23;;;8.57;;
11486;SDS011;10510;47.942;9.442;2022-12-15T04:18:41;18.13;;;9.75;;
11486;SDS011;10510;47.942;9.442;2022-12-15T04:20:42;16.77;;;9.10;;
11486;SDS011;10510;47.942;9.442;2022-12-15T04:22:43;19.17;;;9.82;;
11486;SDS011;10510;47.942;9.442;2022-12-15T04:24:45;24.80;;;10.23;;
11486;SDS011;10510;47.942;9.442;2022-12-15T04:27:04;18.35;;;9.18;;
11486;SDS011;10510;47.942;9.442;2022-12-15T04:29:22;17.85;;;9.35;;
11486;SDS011;10510;47.942;9.442;2022-12-15T04:31:41;26.30;;;10.85;;
11486;SDS011;10510;47.942;9.442;2022-12-15T04:34:01;19.30;;;9.48;;
11486;SDS011;10510;47.942;9.442;2022-12-15T04:36:22;19.75;;;9.93;;
11486;SDS011;10510;47.942;9.442;2022-12-15T04:38:41;16.35;;;8.95;;
11486;SDS011;10510;47.942;9.442;2022-12-15T04:41:00;18.38;;;9.98;;
11486;SDS011;10510;47.942;9.442;2022-12-15T04:43:19;20.52;;;9.85;;
11486;SDS011;10510;47.942;9.442;2022-12-15T04:45:38;18.75;;;9.90;;
11486;SDS011;10510;47.942;9.442;2022-12-15T04:47:57;16.23;;;9.07;;
11486;SDS011;10510;47.942;9.442;2022-12-15T04:50:17;17.30;;;9.32;;
11486;SDS011;10510;47.942;9.442;2022-12-15T04:52:36;20.95;;;10.02;;
11486;SDS011;10510;47.942;9.442;2022-12-15T04:54:55;19.15;;;9.70;;
11486;SDS011;10510;47.942;9.442;2022-12-15T04:57:13;17.58;;;9.07;;
11486;SDS011;10510;47.942;9.442;2022-12-15T04:59:32;15.70;;;8.85;;
11486;SDS011;10510;47.942;9.442;2022-12-15T05:01:51;21.70;;;10.13;;
11486;SDS011;10510;47.942;9.442;2022-12-15T05:04:10;23.38;;;10.93;;
11486;SDS011;10510;47.942;9.442;2022-12-15T05:06:30;23.05;;;9.95;;
11486;SDS011;10510;47.942;9.442;2022-12-15T05:08:48;26.35;;;11.23;;
11486;SDS011;10510;47.942;9.442;2022-12-15T05:11:07;23.90;;;10.65;;
11486;SDS011;10510;47.942;9.442;2022-12-15T05:13:26;26.23;;;11.50;;
11486;SDS011;10510;47.942;9.442;2022-12-15T05:15:44;22.65;;;10.43;;
11486;SDS011;10510;47.942;9.442;2022-12-15T05:18:03;23.63;;;10.40;;
11486;SDS011;10510;47.942;9.442;2022-12-15T05:20:22;26.88;;;10.70;;
11486;SDS011;10510;47.942;9.442;2022-12-15T05:22:41;25.88;;;10.30;;
11486;SDS011;10510;47.942;9.442;2022-12-15T05:25:00;26.83;;;12.35;;
11486;SDS011;10510;47.942;9.442;2022-12-15T05:27:18;18.13;;;8.95;;
11486;SDS011;10510;47.942;9.442;2022-12-15T05:29:37;18.83;;;9.00;;
11486;SDS011;10510;47.942;9.442;2022-12-15T05:31:56;18.48;;;8.90;;
11486;SDS011;10510;47.942;9.442;2022-12-15T05:33:57;23.88;;;10.10;;
11486;SDS011;10510;47.942;9.442;2022-12-15T05:35:58;19.65;;;9.63;;
11486;SDS011;10510;47.942;9.442;2022-12-15T05:37:58;20.52;;;10.23;;
11486;SDS011;10510;47.942;9.442;2022-12-15T05:39:58;55.70;;;25.45;;
11486;SDS011;10510;47.942;9.442;2022-12-15T05:41:59;29.92;;;14.52;;
11486;SDS011;10510;47.942;9.442;2022-12-15T05:43:59;23.80;;;12.27;;
11486;SDS011;10510;47.942;9.442;2022-12-15T05:46:03;23.00;;;10.25;;
11486;SDS011;10510;47.942;9.442;2022-12-15T05:48:04;18.95;;;9.40;;
11486;SDS011;10510;47.942;9.442;2022-12-15T05:50:05;25.27;;;10.88;;
11486;SDS011;10510;47.942;9.442;2022-12-15T05:52:06;28.55;;;9.68;;
11486;SDS011;10510;47.942;9.442;2022-12-15T05:54:07;27.55;;;9.98;;
11486;SDS011;10510;47.942;9.442;2022-12-15T05:56:09;23.13;;;10.90;;
11486;SDS011;10510;47.942;9.442;2022-12-15T05:58:11;36.08;;;12.02;;
11486;SDS011;10510;47.942;9.442;2022-12-15T06:00:11;23.58;;;11.18;;
11486;SDS011;10510;47.942;9.442;2022-12-15T06:02:12;31.70;;;11.93;;
11486;SDS011;10510;47.942;9.442;2022-12-15T06:04:12;24.13;;;10.95;;
11486;SDS011;10510;47.942;9.442;2022-12-15T06:06:12;23.42;;;11.52;;
11486;SDS011;10510;47.942;9.442;2022-12-15T06:08:13;22.05;;;10.07;;
11486;SDS011;10510;47.942;9.442;2022-12-15T06:10:13;29.15;;;11.38;;
11486;SDS011;10510;47.942;9.442;2022-12-15T06:12:14;36.75;;;14.20;;
11486;SDS011;10510;47.942;9.442;2022-12-15T06:14:14;27.13;;;12.45;;
11486;SDS011;10510;47.942;9.442;2022-12-15T06:16:15;35.13;;;13.45;;
11486;SDS011;10510;47.942;9.442;2022-12-15T06:18:17;25.67;;;12.38;;
11486;SDS011;10510;47.942;9.442;2022-12-15T06:20:18;25.27;;;11.55;;
11486;SDS011;10510;47.942;9.442;2022-12-15T06:22:18;27.58;;;11.88;;
11486;SDS011;10510;47.942;9.442;2022-12-15T06:24:18;27.38;;;12.32;;
11486;SDS011;10510;47.942;9.442;2022-12-15T06:26:20;23.77;;;10.95;;
11486;SDS011;10510;47.942;9.442;2022-12-15T06:28:25;24.10;;;12.07;;
11486;SDS011;10510;47.942;9.442;2022-12-15T06:30:25;31.13;;;13.70;;
11486;SDS011;10510;47.942;9.442;2022-12-15T06:32:25;41.88;;;14.45;;
11486;SDS011;10510;47.942;9.442;2022-12-15T06:34:26;37.55;;;14.30;;
11486;SDS011;10510;47.942;9.442;2022-12-15T06:36:26;33.22;;;13.68;;
11486;SDS011;10510;47.942;9.442;2022-12-15T06:38:27;30.98;;;13.57;;
11486;SDS011;10510;47.942;9.442;2022-12-15T06:40:28;43.08;;;13.65;;
11486;SDS011;10510;47.942;9.442;2022-12-15T06:42:28;41.42;;;15.23;;
11486;SDS011;10510;47.942;9.442;2022-12-15T06:44:29;40.45;;;15.45;;
11486;SDS011;10510;47.942;9.442;2022-12-15T06:46:29;28.30;;;13.05;;
11486;SDS011;10510;47.942;9.442;2022-12-15T06:48:30;25.33;;;12.43;;
11486;SDS011;10510;47.942;9.442;2022-12-15T06:50:32;38.50;;;13.95;;
11486;SDS011;10510;47.942;9.442;2022-12-15T06:52:33;39.50;;;13.43;;
11486;SDS011;10510;47.942;9.442;2022-12-15T06:54:33;28.58;;;12.55;;
11486;SDS011;10510;47.942;9.442;2022-12-15T06:56:34;26.38;;;12.25;;
11486;SDS011;10510;47.942;9.442;2022-12-15T06:58:37;22.55;;;11.60;;
11486;SDS011;10510;47.942;9.442;2022-12-15T07:00:38;27.42;;;11.60;;
11486;SDS011;10510;47.942;9.442;2022-12-15T07:02:43;25.75;;;11.10;;
11486;SDS011;10510;47.942;9.442;2022-12-15T07:04:43;31.65;;;12.45;;
11486;SDS011;10510;47.942;9.442;2022-12-15T07:06:43;26.00;;;12.15;;
11486;SDS011;10510;47.942;9.442;2022-12-15T07:08:47;25.88;;;11.35;;
11486;SDS011;10510;47.942;9.442;2022-12-15T07:10:51;34.97;;;13.25;;
11486;SDS011;10510;47.942;9.442;2022-12-15T07:12:51;38.47;;;13.82;;
11486;SDS011;10510;47.942;9.442;2022-12-15T07:14:51;29.27;;;12.57;;
11486;SDS011;10510;47.942;9.442;2022-12-15T07:16:52;28.02;;;11.35;;
11486;SDS011;10510;47.942;9.442;2022-12-15T07:18:52;36.95;;;14.13;;
11486;SDS011;10510;47.942;9.442;2022-12-15T07:20:52;41.72;;;15.38;;
11486;SDS011;10510;47.942;9.442;2022-12-15T07:22:52;43.03;;;17.13;;
11486;SDS011;10510;47.942;9.442;2022-12-15T07:24:53;37.70;;;15.18;;
11486;SDS011;10510;47.942;9.442;2022-12-15T07:26:53;35.58;;;13.43;;
11486;SDS011;10510;47.942;9.442;2022-12-15T07:28:53;31.85;;;13.63;;
11486;SDS011;10510;47.942;9.442;2022-12-15T07:30:59;28.75;;;12.55;;
11486;SDS011;10510;47.942;9.442;2022-12-15T07:33:01;29.85;;;12.40;;
11486;SDS011;10510;47.942;9.442;2022-12-15T07:35:02;28.08;;;13.20;;
11486;SDS011;10510;47.942;9.442;2022-12-15T07:37:04;33.88;;;15.05;;
11486;SDS011;10510;47.942;9.442;2022-12-15T07:39:04;31.38;;;13.77;;
11486;SDS011;10510;47.942;9.442;2022-12-15T07:41:05;33.58;;;14.82;;
11486;SDS011;10510;47.942;9.442;2022-12-15T07:43:07;40.95;;;13.10;;
11486;SDS011;10510;47.942;9.442;2022-12-15T07:45:07;26.30;;;12.50;;
11486;SDS011;10510;47.942;9.442;2022-12-15T07:47:08;32.58;;;14.02;;
11486;SDS011;10510;47.942;9.442;2022-12-15T07:49:08;40.20;;;15.90;;
11486;SDS011;10510;47.942;9.442;2022-12-15T07:51:09;32.40;;;15.05;;
11486;SDS011;10510;47.942;9.442;2022-12-15T07:53:09;38.80;;;15.30;;
11486;SDS011;10510;47.942;9.442;2022-12-15T07:55:09;39.00;;;13.70;;
11486;SDS011;10510;47.942;9.442;2022-12-15T07:57:10;41.42;;;17.27;;
11486;SDS011;10510;47.942;9.442;2022-12-15T07:59:10;36.67;;;16.08;;
11486;SDS011;10510;47.942;9.442;2022-12-15T08:01:11;35.25;;;14.45;;
11486;SDS011;10510;47.942;9.442;2022-12-15T08:03:12;32.72;;;14.65;;
11486;SDS011;10510;47.942;9.442;2022-12-15T08:05:13;36.85;;;17.15;;
11486;SDS011;10510;47.942;9.442;2022-12-15T08:07:13;33.42;;;14.90;;
11486;SDS011;10510;47.942;9.442;2022-12-15T08:09:13;34.33;;;16.13;;
11486;SDS011;10510;47.942;9.442;2022-12-15T08:11:14;30.52;;;14.07;;
11486;SDS011;10510;47.942;9.442;2022-12-15T08:13:15;29.73;;;13.73;;
11486;SDS011;10510;47.942;9.442;2022-12-15T08:15:16;41.85;;;16.55;;
11486;SDS011;10510;47.942;9.442;2022-12-15T08:17:16;31.55;;;14.52;;
11486;SDS011;10510;47.942;9.442;2022-12-15T08:19:16;29.52;;;12.93;;
11486;SDS011;10510;47.942;9.442;2022-12-15T08:21:17;31.45;;;14.90;;
11486;SDS011;10510;47.942;9.442;2022-12-15T08:23:17;32.15;;;14.32;;
11486;SDS011;10510;47.942;9.442;2022-12-15T08:25:17;34.42;;;15.88;;
11486;SDS011;10510;47.942;9.442;2022-12-15T08:27:18;37.00;;;14.52;;
11486;SDS011;10510;47.942;9.442;2022-12-15T08:29:19;34.40;;;15.98;;
11486;SDS011;10510;47.942;9.442;2022-12-15T08:31:20;32.78;;;15.38;;
11486;SDS011;10510;47.942;9.442;2022-12-15T08:33:22;37.97;;;16.08;;
11486;SDS011;10510;47.942;9.442;2022-12-15T08:35:23;41.00;;;17.88;;
11486;SDS011;10510;47.942;9.442;2022-12-15T08:37:23;33.92;;;16.73;;
11486;SDS011;10510;47.942;9.442;2022-12-15T08:39:23;32.90;;;15.85;;
11486;SDS011;10510;47.942;9.442;2022-12-15T08:41:25;34.45;;;15.30;;
11486;SDS011;10510;47.942;9.442;2022-12-15T08:43:27;30.45;;;14.85;;
11486;SDS011;10510;47.942;9.442;2022-12-15T08:45:27;42.63;;;17.73;;
11486;SDS011;10510;47.942;9.442;2022-12-15T08:47:27;38.53;;;16.55;;
11486;SDS011;10510;47.942;9.442;2022-12-15T08:49:28;37.58;;;14.95;;
11486;SDS011;10510;47.942;9.442;2022-12-15T08:51:29;38.72;;;15.85;;
11486;SDS011;10510;47.942;9.442;2022-12-15T08:53:30;36.83;;;15.57;;
11486;SDS011;10510;47.942;9.442;2022-12-15T08:55:32;34.95;;;16.33;;
11486;SDS011;10510;47.942;9.442;2022-12-15T08:57:33;37.92;;;16.52;;
11486;SDS011;10510;47.942;9.442;2022-12-15T08:59:33;33.70;;;16.23;;
11486;SDS011;10510;47.942;9.442;2022-12-15T09:01:33;38.08;;;16.92;;
11486;SDS011;10510;47.942;9.442;2022-12-15T09:03:38;35.67;;;15.18;;
11486;SDS011;10510;47.942;9.442;2022-12-15T09:05:39;35.20;;;15.52;;
11486;SDS011;10510;47.942;9.442;2022-12-15T09:07:39;36.90;;;14.70;;
11486;SDS011;10510;47.942;9.442;2022-12-15T09:09:40;49.97;;;17.27;;
11486;SDS011;10510;47.942;9.442;2022-12-15T09:11:40;42.25;;;16.42;;
11486;SDS011;10510;47.942;9.442;2022-12-15T09:13:40;32.17;;;15.82;;
11486;SDS011;10510;47.942;9.442;2022-12-15T09:15:40;35.55;;;15.80;;
11486;SDS011;10510;47.942;9.442;2022-12-15T09:17:42;33.00;;;16.38;;
11486;SDS011;10510;47.942;9.442;2022-12-15T09:19:43;36.03;;;15.63;;
11486;SDS011;10510;47.942;9.442;2022-12-15T09:21:43;39.60;;;14.88;;
11486;SDS011;10510;47.942;9.442;2022-12-15T09:23:47;34.25;;;16.20;;
11486;SDS011;10510;47.942;9.442;2022-12-15T09:25:50;38.33;;;16.20;;
11486;SDS011;10510;47.942;9.442;2022-12-15T09:28:01;39.67;;;15.80;;
11486;SDS011;10510;47.942;9.442;2022-12-15T09:30:02;40.90;;;15.65;;
11486;SDS011;10510;47.942;9.442;2022-12-15T09:32:02;34.97;;;15.55;;
11486;SDS011;10510;47.942;9.442;2022-12-15T09:34:03;40.67;;;16.38;;
11486;SDS011;10510;47.942;9.442;2022-12-15T09:36:03;39.42;;;16.83;;
11486;SDS011;10510;47.942;9.442;2022-12-15T09:38:05;38.10;;;16.20;;
11486;SDS011;10510;47.942;9.442;2022-12-15T09:40:05;35.60;;;16.27;;
11486;SDS011;10510;47.942;9.442;2022-12-15T09:42:15;34.53;;;15.52;;
11486;SDS011;10510;47.942;9.442;2022-12-15T09:44:22;41.22;;;16.00;;
11486;SDS011;10510;47.942;9.442;2022-12-15T09:48:44;32.47;;;16.35;;
11486;SDS011;10510;47.942;9.442;2022-12-15T09:50:47;39.35;;;17.25;;
11486;SDS011;10510;47.942;9.442;2022-12-15T09:52:54;37.30;;;17.63;;
11486;SDS011;10510;47.942;9.442;2022-12-15T09:54:59;57.85;;;21.58;;
11486;SDS011;10510;47.942;9.442;2022-12-15T09:57:04;50.08;;;18.92;;
11486;SDS011;10510;47.942;9.442;2022-12-15T10:01:42;43.90;;;19.25;;
11486;SDS011;10510;47.942;9.442;2022-12-15T10:08:27;46.53;;;20.40;;
11486;SDS011;10510;47.942;9.442;2022-12-15T10:14:41;52.58;;;19.48;;
11486;SDS011;10510;47.942;9.442;2022-12-15T10:16:52;49.72;;;21.10;;
11486;SDS011;10510;47.942;9.442;2022-12-15T10:21:20;44.90;;;20.13;;
11486;SDS011;10510;47.942;9.442;2022-12-15T10:23:25;39.65;;;18.77;;
11486;SDS011;10510;47.942;9.442;2022-12-15T10:25:27;51.20;;;20.20;;
11486;SDS011;10510;47.942;9.442;2022-12-15T10:29:44;48.22;;;20.70;;
11486;SDS011;10510;47.942;9.442;2022-12-15T10:34:09;49.55;;;20.80;;
11486;SDS011;10510;47.942;9.442;2022-12-15T10:36:22;54.08;;;24.60;;
11486;SDS011;10510;47.942;9.442;2022-12-15T10:38:26;44.95;;;19.77;;
11486;SDS011;10510;47.942;9.442;2022-12-15T10:40:41;45.42;;;19.92;;
11486;SDS011;10510;47.942;9.442;2022-12-15T10:42:50;52.97;;;19.73;;
11486;SDS011;10510;47.942;9.442;2022-12-15T10:44:54;44.50;;;20.83;;
11486;SDS011;10510;47.942;9.442;2022-12-15T10:46:56;46.00;;;21.05;;
11486;SDS011;10510;47.942;9.442;2022-12-15T10:48:58;47.08;;;20.42;;
11486;SDS011;10510;47.942;9.442;2022-12-15T10:51:16;48.10;;;21.35;;
11486;SDS011;10510;47.942;9.442;2022-12-15T10:56:05;58.10;;;22.52;;
11486;SDS011;10510;47.942;9.442;2022-12-15T10:58:17;51.22;;;20.90;;
11486;SDS011;10510;47.942;9.442;2022-12-15T11:00:30;68.60;;;22.38;;
11486;SDS011;10510;47.942;9.442;2022-12-15T11:02:32;48.60;;;21.65;;
11486;SDS011;10510;47.942;9.442;2022-12-15T11:04:33;51.95;;;20.80;;
11486;SDS011;10510;47.942;9.442;2022-12-15T11:06:33;54.65;;;23.75;;
11486;SDS011;10510;47.942;9.442;2022-12-15T11:08:36;53.35;;;22.02;;
11486;SDS011;10510;47.942;9.442;2022-12-15T11:10:37;52.90;;;21.52;;
11486;SDS011;10510;47.942;9.442;2022-12-15T11:17:23;51.55;;;21.88;;
11486;SDS011;10510;47.942;9.442;2022-12-15T11:21:47;53.35;;;21.73;;
11486;SDS011;10510;47.942;9.442;2022-12-15T11:29:00;50.45;;;21.90;;
11486;SDS011;10510;47.942;9.442;2022-12-15T11:31:15;55.92;;;23.60;;
11486;SDS011;10510;47.942;9.442;2022-12-15T11:33:21;62.33;;;24.90;;
11486;SDS011;10510;47.942;9.442;2022-12-15T11:35:34;57.95;;;22.88;;
11486;SDS011;10510;47.942;9.442;2022-12-15T11:37:50;53.88;;;22.08;;
11486;SDS011;10510;47.942;9.442;2022-12-15T11:42:52;54.90;;;22.50;;
11486;SDS011;10510;47.942;9.442;2022-12-15T11:47:12;51.95;;;21.45;;
11486;SDS011;10510;47.942;9.442;2022-12-15T11:49:27;47.10;;;19.55;;
11486;SDS011;10510;47.942;9.442;2022-12-15T11:56:54;56.97;;;23.30;;
11486;SDS011;10510;47.942;9.442;2022-12-15T12:01:21;57.67;;;22.63;;
11486;SDS011;10510;47.942;9.442;2022-12-15T12:03:38;59.60;;;24.38;;
11486;SDS011;10510;47.942;9.442;2022-12-15T12:17:20;54.70;;;22.05;;
11486;SDS011;10510;47.942;9.442;2022-12-15T12:19:48;53.63;;;21.45;;
11486;SDS011;10510;47.942;9.442;2022-12-15T12:21:55;59.55;;;24.02;;
11486;SDS011;10510;47.942;9.442;2022-12-15T12:26:05;51.65;;;20.92;;
11486;SDS011;10510;47.942;9.442;2022-12-15T12:28:20;55.10;;;22.83;;
11486;SDS011;10510;47.942;9.442;2022-12-15T12:30:28;64.78;;;25.83;;
11486;SDS011;10510;47.942;9.442;2022-12-15T12:33:14;63.17;;;21.42;;
11486;SDS011;10510;47.942;9.442;2022-12-15T12:35:37;52.65;;;23.00;;
11486;SDS011;10510;47.942;9.442;2022-12-15T12:40:02;55.25;;;21.52;;
11486;SDS011;10510;47.942;9.442;2022-12-15T12:42:36;55.13;;;22.08;;
11486;SDS011;10510;47.942;9.442;2022-12-15T12:44:52;59.93;;;22.67;;
11486;SDS011;10510;47.942;9.442;2022-12-15T12:46:52;58.70;;;23.38;;
11486;SDS011;10510;47.942;9.442;2022-12-15T12:49:06;58.30;;;24.77;;
11486;SDS011;10510;47.942;9.442;2022-12-15T12:53:31;60.45;;;23.25;;
11486;SDS011;10510;47.942;9.442;2022-12-15T12:55:39;55.47;;;20.80;;
11486;SDS011;10510;47.942;9.442;2022-12-15T12:57:41;67.18;;;22.15;;
11486;SDS011;10510;47.942;9.442;2022-12-15T12:59:43;61.97;;;25.25;;
11486;SDS011;10510;47.942;9.442;2022-12-15T13:08:51;56.03;;;24.13;;
11486;SDS011;10510;47.942;9.442;2022-12-15T13:10:52;58.75;;;22.63;;
11486;SDS011;10510;47.942;9.442;2022-12-15T13:12:55;57.60;;;23.80;;
11486;SDS011;10510;47.942;9.442;2022-12-15T13:17:41;55.30;;;23.30;;
11486;SDS011;10510;47.942;9.442;2022-12-15T13:21:59;65.30;;;23.80;;
11486;SDS011;10510;47.942;9.442;2022-12-15T13:24:00;62.67;;;24.75;;
11486;SDS011;10510;47.942;9.442;2022-12-15T13:30:23;57.33;;;24.05;;
11486;SDS011;10510;47.942;9.442;2022-12-15T13:32:31;64.50;;;26.02;;
11486;SDS011;10510;47.942;9.442;2022-12-15T13:34:36;74.75;;;27.13;;
11486;SDS011;10510;47.942;9.442;2022-12-15T13:38:50;66.65;;;25.42;;
11486;SDS011;10510;47.942;9.442;2022-12-15T13:40:52;63.28;;;25.63;;
11486;SDS011;10510;47.942;9.442;2022-12-15T13:42:56;64.53;;;24.00;;
11486;SDS011;10510;47.942;9.442;2022-12-15T13:45:14;62.65;;;25.88;;
11486;SDS011;10510;47.942;9.442;2022-12-15T13:47:28;62.97;;;24.23;;
11486;SDS011;10510;47.942;9.442;2022-12-15T13:49:30;66.82;;;26.67;;
11486;SDS011;10510;47.942;9.442;2022-12-15T13:51:37;75.53;;;28.13;;
11486;SDS011;10510;47.942;9.442;2022-12-15T13:53:42;68.97;;;25.67;;
11486;SDS011;10510;47.942;9.442;2022-12-15T13:55:51;70.43;;;27.45;;
11486;SDS011;10510;47.942;9.442;2022-12-15T13:57:57;68.05;;;26.10;;
11486;SDS011;10510;47.942;9.442;2022-12-15T14:00:04;69.55;;;25.95;;
11486;SDS011;10510;47.942;9.442;2022-12-15T14:02:30;73.22;;;29.35;;
11486;SDS011;10510;47.942;9.442;2022-12-15T14:04:32;82.40;;;28.65;;
11486;SDS011;10510;47.942;9.442;2022-12-15T14:06:33;65.55;;;26.88;;
11486;SDS011;10510;47.942;9.442;2022-12-15T14:08:36;87.00;;;33.78;;
11486;SDS011;10510;47.942;9.442;2022-12-15T14:12:41;73.00;;;27.17;;
11486;SDS011;10510;47.942;9.442;2022-12-15T14:14:42;69.35;;;25.77;;